sensor_id;sensor_type;location;lat;lon;timestamp;temperature;humidity
26262;DHT22;13988;52.446;13.280;2023-06-14T00:01:54;14.80;99.90
26262;DHT22;13988;52.446;13.280;2023-06-14T00:04:21;14.90;99.90
26262;DHT22;13988;52.446;13.280;2023-06-14T00:06:47;14.80;99.90
26262;DHT22;13988;52.446;13.280;2023-06-14T00:09:13;14.90;99.90
26262;DHT22;13988;52.446;13.280;2023-06-14T00:11:41;14.80;99.90
26262;DHT22;13988;52.446;13.280;2023-06-14T00:14:07;14.60;99.90
26262;DHT22;13988;52.446;13.280;2023-06-14T00:16:32;14.60;99.90
26262;DHT22;13988;52.446;13.280;2023-06-14T00:18:59;14.60;99.90
26262;DHT22;13988;52.446;13.280;2023-06-14T00:21:24;14.70;99.90
26262;DHT22;13988;52.446;13.280;2023-06-14T00:23:50;14.60;99.90
26262;DHT22;13988;52.446;13.280;2023-06-14T00:26:16;14.60;99.90
26262;DHT22;13988;52.446;13.280;2023-06-14T00:28:41;14.60;99.90
26262;DHT22;13988;52.446;13.280;2023-06-14T00:31:07;14.60;99.90
26262;DHT22;13988;52.446;13.280;2023-06-14T00:33:33;14.50;99.90
26262;DHT22;13988;52.446;13.280;2023-06-14T00:35:58;14.60;99.90
26262;DHT22;13988;52.446;13.280;2023-06-14T00:38:24;14.60;99.90
26262;DHT22;13988;52.446;13.280;2023-06-14T00:40:50;14.60;99.90
26262;DHT22;13988;52.446;13.280;2023-06-14T00:43:16;14.70;99.90
26262;DHT22;13988;52.446;13.280;2023-06-14T00:45:41;14.50;99.90
26262;DHT22;13988;52.446;13.280;2023-06-14T00:48:08;14.50;99.90
26262;DHT22;13988;52.446;13.280;2023-06-14T00:50:35;14.50;99.90
26262;DHT22;13988;52.446;13.280;2023-06-14T00:53:01;14.50;99.90
26262;DHT22;13988;52.446;13.280;2023-06-14T00:55:28;14.40;99.90
26262;DHT22;13988;52.446;13.280;2023-06-14T00:57:55;14.40;99.90
26262;DHT22;13988;52.446;13.280;2023-06-14T01:00:21;14.40;99.90
26262;DHT22;13988;52.446;13.280;2023-06-14T01:02:46;14.40;99.90
26262;DHT22;13988;52.446;13.280;2023-06-14T01:05:13;14.40;99.90
26262;DHT22;13988;52.446;13.280;2023-06-14T01:08:14;14.50;99.90
26262;DHT22;13988;52.446;13.280;2023-06-14T01:11:10;14.40;99.90
26262;DHT22;13988;52.446;13.280;2023-06-14T01:13:43;14.30;99.90
26262;DHT22;13988;52.446;13.280;2023-06-14T01:16:11;14.20;99.90
26262;DHT22;13988;52.446;13.280;2023-06-14T01:18:38;14.20;99.90
26262;DHT22;13988;52.446;13.280;2023-06-14T01:21:03;14.20;99.90
26262;DHT22;13988;52.446;13.280;2023-06-14T01:23:32;14.20;99.90
26262;DHT22;13988;52.446;13.280;2023-06-14T01:25:59;14.10;99.90
26262;DHT22;13988;52.446;13.280;2023-06-14T01:28:26;14.10;99.90
26262;DHT22;13988;52.446;13.280;2023-06-14T01:31:00;14.10;99.90
26262;DHT22;13988;52.446;13.280;2023-06-14T01:33:29;14.10;99.90
26262;DHT22;13988;52.446;13.280;2023-06-14T01:35:56;14.20;99.90
26262;DHT22;13988;52.446;13.280;2023-06-14T01:38:24;14.20;99.90
26262;DHT22;13988;52.446;13.280;2023-06-14T01:40:51;14.20;99.90
26262;DHT22;13988;52.446;13.280;2023-06-14T01:43:18;14.20;99.90
26262;DHT22;13988;52.446;13.280;2023-06-14T01:45:46;14.10;99.90
26262;DHT22;13988;52.446;13.280;2023-06-14T01:48:14;14.10;99.90
26262;DHT22;13988;52.446;13.280;2023-06-14T01:50:40;14.00;99.90
26262;DHT22;13988;52.446;13.280;2023-06-14T01:53:10;14.10;99.90
26262;DHT22;13988;52.446;13.280;2023-06-14T01:55:36;14.20;99.90
26262;DHT22;13988;52.446;13.280;2023-06-14T01:58:04;14.20;99.90
26262;DHT22;13988;52.446;13.280;2023-06-14T02:00:30;14.20;99.90
26262;DHT22;13988;52.446;13.280;2023-06-14T02:02:56;14.10;99.90
26262;DHT22;13988;52.446;13.280;2023-06-14T02:05:21;14.00;99.90
26262;DHT22;13988;52.446;13.280;2023-06-14T02:07:47;14.10;99.90
26262;DHT22;13988;52.446;13.280;2023-06-14T02:10:13;14.00;99.90
26262;DHT22;13988;52.446;13.280;2023-06-14T02:12:40;13.90;99.90
26262;DHT22;13988;52.446;13.280;2023-06-14T02:15:06;13.90;99.90
26262;DHT22;13988;52.446;13.280;2023-06-14T02:17:32;13.80;99.90
26262;DHT22;13988;52.446;13.280;2023-06-14T02:19:58;13.80;99.90
26262;DHT22;13988;52.446;13.280;2023-06-14T02:22:24;13.90;99.90
26262;DHT22;13988;52.446;13.280;2023-06-14T02:24:50;13.80;99.90
26262;DHT22;13988;52.446;13.280;2023-06-14T02:27:16;13.80;99.90
26262;DHT22;13988;52.446;13.280;2023-06-14T02:29:42;13.80;99.90
26262;DHT22;13988;52.446;13.280;2023-06-14T02:32:08;13.70;99.90
26262;DHT22;13988;52.446;13.280;2023-06-14T02:34:34;13.70;99.90
26262;DHT22;13988;52.446;13.280;2023-06-14T02:37:00;13.60;99.90
26262;DHT22;13988;52.446;13.280;2023-06-14T02:39:28;13.70;99.90
26262;DHT22;13988;52.446;13.280;2023-06-14T02:41:54;13.60;99.90
26262;DHT22;13988;52.446;13.280;2023-06-14T02:44:20;13.60;99.90
26262;DHT22;13988;52.446;13.280;2023-06-14T02:46:49;13.50;99.90
26262;DHT22;13988;52.446;13.280;2023-06-14T02:49:14;13.50;99.90
26262;DHT22;13988;52.446;13.280;2023-06-14T02:51:40;13.50;99.90
26262;DHT22;13988;52.446;13.280;2023-06-14T02:54:06;13.50;99.90
26262;DHT22;13988;52.446;13.280;2023-06-14T02:56:31;13.60;99.90
26262;DHT22;13988;52.446;13.280;2023-06-14T02:58:57;13.60;99.90
26262;DHT22;13988;52.446;13.280;2023-06-14T03:01:25;13.50;99.90
26262;DHT22;13988;52.446;13.280;2023-06-14T03:03:59;13.50;99.90
26262;DHT22;13988;52.446;13.280;2023-06-14T03:06:24;13.50;99.90
26262;DHT22;13988;52.446;13.280;2023-06-14T03:08:50;13.50;99.90
26262;DHT22;13988;52.446;13.280;2023-06-14T03:11:16;13.60;99.90
26262;DHT22;13988;52.446;13.280;2023-06-14T03:13:45;13.50;99.90
26262;DHT22;13988;52.446;13.280;2023-06-14T03:16:12;13.50;99.90
26262;DHT22;13988;52.446;13.280;2023-06-14T03:18:38;13.50;99.90
26262;DHT22;13988;52.446;13.280;2023-06-14T03:21:03;13.50;99.90
26262;DHT22;13988;52.446;13.280;2023-06-14T03:23:30;13.60;99.90
26262;DHT22;13988;52.446;13.280;2023-06-14T03:25:56;13.60;99.90
26262;DHT22;13988;52.446;13.280;2023-06-14T03:28:22;13.60;99.90
26262;DHT22;13988;52.446;13.280;2023-06-14T03:30:48;13.50;99.90
26262;DHT22;13988;52.446;13.280;2023-06-14T03:33:13;13.50;99.90
26262;DHT22;13988;52.446;13.280;2023-06-14T03:35:40;13.50;99.90
26262;DHT22;13988;52.446;13.280;2023-06-14T03:38:06;13.60;99.90
26262;DHT22;13988;52.446;13.280;2023-06-14T03:40:32;13.60;99.90
26262;DHT22;13988;52.446;13.280;2023-06-14T03:42:58;13.70;99.90
26262;DHT22;13988;52.446;13.280;2023-06-14T03:45:23;13.70;99.90
26262;DHT22;13988;52.446;13.280;2023-06-14T03:47:49;13.70;99.90
26262;DHT22;13988;52.446;13.280;2023-06-14T03:50:16;13.70;99.90
26262;DHT22;13988;52.446;13.280;2023-06-14T03:52:42;13.80;99.90
26262;DHT22;13988;52.446;13.280;2023-06-14T03:55:09;13.90;99.90
26262;DHT22;13988;52.446;13.280;2023-06-14T03:57:35;13.90;99.90
26262;DHT22;13988;52.446;13.280;2023-06-14T04:00:01;13.90;99.90
26262;DHT22;13988;52.446;13.280;2023-06-14T04:02:26;14.00;99.90
26262;DHT22;13988;52.446;13.280;2023-06-14T04:04:54;14.00;99.90
26262;DHT22;13988;52.446;13.280;2023-06-14T04:07:20;13.90;99.90
26262;DHT22;13988;52.446;13.280;2023-06-14T04:09:46;14.00;99.90
26262;DHT22;13988;52.446;13.280;2023-06-14T04:12:12;14.10;99.90
26262;DHT22;13988;52.446;13.280;2023-06-14T04:14:39;14.10;99.90
26262;DHT22;13988;52.446;13.280;2023-06-14T04:17:05;14.30;99.90
26262;DHT22;13988;52.446;13.280;2023-06-14T04:19:30;14.30;99.90
26262;DHT22;13988;52.446;13.280;2023-06-14T04:21:56;14.40;99.90
26262;DHT22;13988;52.446;13.280;2023-06-14T04:24:22;14.40;99.90
26262;DHT22;13988;52.446;13.280;2023-06-14T04:26:49;14.40;99.90
26262;DHT22;13988;52.446;13.280;2023-06-14T04:29:15;14.40;99.90
26262;DHT22;13988;52.446;13.280;2023-06-14T04:31:42;14.40;99.90
26262;DHT22;13988;52.446;13.280;2023-06-14T04:34:08;14.50;99.90
26262;DHT22;13988;52.446;13.280;2023-06-14T04:36:35;14.60;99.90
26262;DHT22;13988;52.446;13.280;2023-06-14T04:39:03;14.80;99.90
26262;DHT22;13988;52.446;13.280;2023-06-14T04:41:32;14.90;99.90
26262;DHT22;13988;52.446;13.280;2023-06-14T04:43:58;15.00;99.90
26262;DHT22;13988;52.446;13.280;2023-06-14T04:46:27;15.00;99.90
26262;DHT22;13988;52.446;13.280;2023-06-14T04:48:54;15.00;99.90
26262;DHT22;13988;52.446;13.280;2023-06-14T04:51:20;14.90;99.90
26262;DHT22;13988;52.446;13.280;2023-06-14T04:53:48;14.90;99.90
26262;DHT22;13988;52.446;13.280;2023-06-14T04:56:15;14.90;99.90
26262;DHT22;13988;52.446;13.280;2023-06-14T04:58:42;14.90;99.90
26262;DHT22;13988;52.446;13.280;2023-06-14T05:01:09;15.00;99.90
26262;DHT22;13988;52.446;13.280;2023-06-14T05:03:35;15.10;99.90
26262;DHT22;13988;52.446;13.280;2023-06-14T05:06:00;15.20;99.90
26262;DHT22;13988;52.446;13.280;2023-06-14T05:08:26;15.20;99.90
26262;DHT22;13988;52.446;13.280;2023-06-14T05:10:52;15.30;99.90
26262;DHT22;13988;52.446;13.280;2023-06-14T05:13:18;15.40;99.90
26262;DHT22;13988;52.446;13.280;2023-06-14T05:15:44;15.40;99.90
26262;DHT22;13988;52.446;13.280;2023-06-14T05:18:10;15.50;99.90
26262;DHT22;13988;52.446;13.280;2023-06-14T05:20:35;15.50;99.90
26262;DHT22;13988;52.446;13.280;2023-06-14T05:23:02;15.60;99.90
26262;DHT22;13988;52.446;13.280;2023-06-14T05:25:28;15.60;99.90
26262;DHT22;13988;52.446;13.280;2023-06-14T05:27:54;15.50;99.90
26262;DHT22;13988;52.446;13.280;2023-06-14T05:30:20;15.50;99.90
26262;DHT22;13988;52.446;13.280;2023-06-14T05:32:45;15.70;99.90
26262;DHT22;13988;52.446;13.280;2023-06-14T05:35:11;15.70;99.90
26262;DHT22;13988;52.446;13.280;2023-06-14T05:37:37;15.90;99.90
26262;DHT22;13988;52.446;13.280;2023-06-14T05:40:04;16.00;99.90
26262;DHT22;13988;52.446;13.280;2023-06-14T05:42:31;16.00;99.90
26262;DHT22;13988;52.446;13.280;2023-06-14T05:44:57;16.00;99.90
26262;DHT22;13988;52.446;13.280;2023-06-14T05:47:22;16.20;99.90
26262;DHT22;13988;52.446;13.280;2023-06-14T05:49:48;16.20;99.90
26262;DHT22;13988;52.446;13.280;2023-06-14T05:52:14;16.20;99.90
26262;DHT22;13988;52.446;13.280;2023-06-14T05:54:39;16.20;99.90
26262;DHT22;13988;52.446;13.280;2023-06-14T05:57:06;16.30;99.90
26262;DHT22;13988;52.446;13.280;2023-06-14T05:59:32;16.40;99.90
26262;DHT22;13988;52.446;13.280;2023-06-14T06:01:58;16.50;99.90
26262;DHT22;13988;52.446;13.280;2023-06-14T06:04:24;16.60;99.90
26262;DHT22;13988;52.446;13.280;2023-06-14T06:06:49;16.60;99.90
26262;DHT22;13988;52.446;13.280;2023-06-14T06:09:15;16.60;99.90
26262;DHT22;13988;52.446;13.280;2023-06-14T06:11:41;16.60;99.90
26262;DHT22;13988;52.446;13.280;2023-06-14T06:14:06;16.50;99.90
26262;DHT22;13988;52.446;13.280;2023-06-14T06:16:32;16.40;99.90
26262;DHT22;13988;52.446;13.280;2023-06-14T06:18:58;16.40;99.90
26262;DHT22;13988;52.446;13.280;2023-06-14T06:21:24;16.40;99.90
26262;DHT22;13988;52.446;13.280;2023-06-14T06:23:50;16.50;99.90
26262;DHT22;13988;52.446;13.280;2023-06-14T06:26:16;16.50;99.90
26262;DHT22;13988;52.446;13.280;2023-06-14T06:28:42;16.40;99.90
26262;DHT22;13988;52.446;13.280;2023-06-14T06:31:07;16.40;99.90
26262;DHT22;13988;52.446;13.280;2023-06-14T06:33:33;16.50;99.90
26262;DHT22;13988;52.446;13.280;2023-06-14T06:35:59;16.40;99.90
26262;DHT22;13988;52.446;13.280;2023-06-14T06:38:24;16.40;99.90
26262;DHT22;13988;52.446;13.280;2023-06-14T06:40:50;16.40;99.90
26262;DHT22;13988;52.446;13.280;2023-06-14T06:43:16;16.20;99.90
26262;DHT22;13988;52.446;13.280;2023-06-14T06:45:43;16.30;99.90
26262;DHT22;13988;52.446;13.280;2023-06-14T06:48:08;16.40;99.90
26262;DHT22;13988;52.446;13.280;2023-06-14T06:50:37;16.40;99.90
26262;DHT22;13988;52.446;13.280;2023-06-14T06:53:03;16.30;99.90
26262;DHT22;13988;52.446;13.280;2023-06-14T06:55:28;16.40;99.90
26262;DHT22;13988;52.446;13.280;2023-06-14T06:57:54;16.40;99.90
26262;DHT22;13988;52.446;13.280;2023-06-14T07:00:20;16.40;99.90
26262;DHT22;13988;52.446;13.280;2023-06-14T07:02:47;16.50;99.90
26262;DHT22;13988;52.446;13.280;2023-06-14T07:05:12;16.70;99.90
26262;DHT22;13988;52.446;13.280;2023-06-14T07:07:38;17.00;99.90
26262;DHT22;13988;52.446;13.280;2023-06-14T07:10:04;17.10;99.90
26262;DHT22;13988;52.446;13.280;2023-06-14T07:12:31;17.20;99.90
26262;DHT22;13988;52.446;13.280;2023-06-14T07:14:59;17.30;99.90
26262;DHT22;13988;52.446;13.280;2023-06-14T07:17:25;17.30;99.90
26262;DHT22;13988;52.446;13.280;2023-06-14T07:19:51;17.30;99.90
26262;DHT22;13988;52.446;13.280;2023-06-14T07:22:16;17.50;99.90
26262;DHT22;13988;52.446;13.280;2023-06-14T07:24:43;17.70;99.90
26262;DHT22;13988;52.446;13.280;2023-06-14T07:27:08;17.70;99.90
26262;DHT22;13988;52.446;13.280;2023-06-14T07:29:34;17.80;99.90
26262;DHT22;13988;52.446;13.280;2023-06-14T07:32:00;18.00;99.90
26262;DHT22;13988;52.446;13.280;2023-06-14T07:34:25;18.10;99.90
26262;DHT22;13988;52.446;13.280;2023-06-14T07:36:52;18.20;99.90
26262;DHT22;13988;52.446;13.280;2023-06-14T07:39:19;18.10;99.90
26262;DHT22;13988;52.446;13.280;2023-06-14T07:41:45;18.30;99.90
26262;DHT22;13988;52.446;13.280;2023-06-14T07:44:11;19.30;99.90
26262;DHT22;13988;52.446;13.280;2023-06-14T07:46:37;19.80;99.90
26262;DHT22;13988;52.446;13.280;2023-06-14T07:49:03;20.60;99.90
26262;DHT22;13988;52.446;13.280;2023-06-14T07:51:29;20.80;99.90
26262;DHT22;13988;52.446;13.280;2023-06-14T07:53:54;20.10;99.90
26262;DHT22;13988;52.446;13.280;2023-06-14T07:56:20;19.50;99.90
26262;DHT22;13988;52.446;13.280;2023-06-14T07:58:46;19.10;99.90
26262;DHT22;13988;52.446;13.280;2023-06-14T08:01:12;18.70;99.90
26262;DHT22;13988;52.446;13.280;2023-06-14T08:03:38;18.70;99.90
26262;DHT22;13988;52.446;13.280;2023-06-14T08:06:04;18.80;99.90
26262;DHT22;13988;52.446;13.280;2023-06-14T08:08:30;19.00;99.90
26262;DHT22;13988;52.446;13.280;2023-06-14T08:10:56;18.90;99.90
26262;DHT22;13988;52.446;13.280;2023-06-14T08:13:21;19.10;99.90
26262;DHT22;13988;52.446;13.280;2023-06-14T08:15:47;19.20;99.90
26262;DHT22;13988;52.446;13.280;2023-06-14T08:18:13;19.30;99.90
26262;DHT22;13988;52.446;13.280;2023-06-14T08:20:38;19.20;99.90
26262;DHT22;13988;52.446;13.280;2023-06-14T08:23:05;19.10;99.90
26262;DHT22;13988;52.446;13.280;2023-06-14T08:25:31;19.10;99.90
26262;DHT22;13988;52.446;13.280;2023-06-14T08:27:56;19.10;99.90
26262;DHT22;13988;52.446;13.280;2023-06-14T08:30:22;19.40;99.90
26262;DHT22;13988;52.446;13.280;2023-06-14T08:32:48;19.10;99.90
26262;DHT22;13988;52.446;13.280;2023-06-14T08:35:14;19.10;99.90
26262;DHT22;13988;52.446;13.280;2023-06-14T08:37:40;19.10;99.90
26262;DHT22;13988;52.446;13.280;2023-06-14T08:40:19;19.30;99.90
26262;DHT22;13988;52.446;13.280;2023-06-14T08:42:54;19.50;99.90
26262;DHT22;13988;52.446;13.280;2023-06-14T08:45:21;19.80;99.90
26262;DHT22;13988;52.446;13.280;2023-06-14T08:47:47;19.90;99.90
26262;DHT22;13988;52.446;13.280;2023-06-14T08:50:22;19.60;99.90
26262;DHT22;13988;52.446;13.280;2023-06-14T08:52:52;19.60;99.90
26262;DHT22;13988;52.446;13.280;2023-06-14T08:55:18;19.40;99.90
26262;DHT22;13988;52.446;13.280;2023-06-14T08:57:46;19.30;99.90
26262;DHT22;13988;52.446;13.280;2023-06-14T09:00:13;19.40;99.90
26262;DHT22;13988;52.446;13.280;2023-06-14T09:02:40;19.70;99.90
26262;DHT22;13988;52.446;13.280;2023-06-14T09:05:11;20.10;99.90
26262;DHT22;13988;52.446;13.280;2023-06-14T09:07:44;20.10;99.90
26262;DHT22;13988;52.446;13.280;2023-06-14T09:10:11;20.40;99.90
26262;DHT22;13988;52.446;13.280;2023-06-14T09:12:37;20.80;99.90
26262;DHT22;13988;52.446;13.280;2023-06-14T09:15:04;21.10;99.90
26262;DHT22;13988;52.446;13.280;2023-06-14T09:17:35;21.00;99.90
26262;DHT22;13988;52.446;13.280;2023-06-14T09:20:05;21.10;99.90
26262;DHT22;13988;52.446;13.280;2023-06-14T09:22:32;20.90;99.90
26262;DHT22;13988;52.446;13.280;2023-06-14T09:24:59;20.60;99.90
26262;DHT22;13988;52.446;13.280;2023-06-14T09:27:26;20.80;99.90
26262;DHT22;13988;52.446;13.280;2023-06-14T09:29:52;20.70;99.90
26262;DHT22;13988;52.446;13.280;2023-06-14T09:32:18;20.80;99.90
26262;DHT22;13988;52.446;13.280;2023-06-14T09:34:45;20.50;99.90
26262;DHT22;13988;52.446;13.280;2023-06-14T09:37:11;20.60;99.90
26262;DHT22;13988;52.446;13.280;2023-06-14T09:39:52;20.80;99.90
26262;DHT22;13988;52.446;13.280;2023-06-14T09:42:19;20.80;99.90
26262;DHT22;13988;52.446;13.280;2023-06-14T09:44:48;21.10;99.90
26262;DHT22;13988;52.446;13.280;2023-06-14T09:47:15;21.10;99.90
26262;DHT22;13988;52.446;13.280;2023-06-14T09:49:42;20.80;99.90
26262;DHT22;13988;52.446;13.280;2023-06-14T09:52:14;21.20;99.90
26262;DHT22;13988;52.446;13.280;2023-06-14T09:54:42;21.10;99.90
26262;DHT22;13988;52.446;13.280;2023-06-14T09:57:13;21.10;99.90
26262;DHT22;13988;52.446;13.280;2023-06-14T09:59:49;20.90;99.90
26262;DHT22;13988;52.446;13.280;2023-06-14T10:02:28;20.90;99.90
26262;DHT22;13988;52.446;13.280;2023-06-14T10:05:07;20.80;99.90
26262;DHT22;13988;52.446;13.280;2023-06-14T10:07:58;21.10;99.90
26262;DHT22;13988;52.446;13.280;2023-06-14T10:10:25;21.10;99.90
26262;DHT22;13988;52.446;13.280;2023-06-14T10:12:51;21.20;99.90
26262;DHT22;13988;52.446;13.280;2023-06-14T10:18:01;21.20;99.90
26262;DHT22;13988;52.446;13.280;2023-06-14T10:23:00;21.20;99.90
26262;DHT22;13988;52.446;13.280;2023-06-14T10:25:28;21.40;99.90
26262;DHT22;13988;52.446;13.280;2023-06-14T10:28:23;21.30;99.90
26262;DHT22;13988;52.446;13.280;2023-06-14T10:33:31;20.80;99.90
26262;DHT22;13988;52.446;13.280;2023-06-14T10:36:29;21.20;99.90
26262;DHT22;13988;52.446;13.280;2023-06-14T10:39:05;21.10;99.90
26262;DHT22;13988;52.446;13.280;2023-06-14T10:41:34;21.40;99.90
26262;DHT22;13988;52.446;13.280;2023-06-14T10:46:55;21.00;99.90
26262;DHT22;13988;52.446;13.280;2023-06-14T10:49:40;21.10;99.90
26262;DHT22;13988;52.446;13.280;2023-06-14T10:52:11;21.10;99.90
26262;DHT22;13988;52.446;13.280;2023-06-14T10:55:14;21.00;99.90
26262;DHT22;13988;52.446;13.280;2023-06-14T10:57:43;21.10;99.90
26262;DHT22;13988;52.446;13.280;2023-06-14T11:00:12;21.30;99.90
26262;DHT22;13988;52.446;13.280;2023-06-14T11:08:15;21.90;99.90
26262;DHT22;13988;52.446;13.280;2023-06-14T11:10:44;22.10;99.90
26262;DHT22;13988;52.446;13.280;2023-06-14T11:13:13;22.10;99.90
26262;DHT22;13988;52.446;13.280;2023-06-14T11:15:44;22.50;99.90
26262;DHT22;13988;52.446;13.280;2023-06-14T11:18:12;22.10;99.90
26262;DHT22;13988;52.446;13.280;2023-06-14T11:20:39;22.00;99.00
26262;DHT22;13988;52.446;13.280;2023-06-14T11:23:05;21.70;99.90
26262;DHT22;13988;52.446;13.280;2023-06-14T11:25:31;21.50;99.90
26262;DHT22;13988;52.446;13.280;2023-06-14T11:27:58;21.60;99.90
26262;DHT22;13988;52.446;13.280;2023-06-14T11:30:24;21.90;99.60
26262;DHT22;13988;52.446;13.280;2023-06-14T11:32:54;21.60;98.20
26262;DHT22;13988;52.446;13.280;2023-06-14T11:35:24;21.40;96.60
26262;DHT22;13988;52.446;13.280;2023-06-14T11:37:54;21.60;97.40
26262;DHT22;13988;52.446;13.280;2023-06-14T11:40:24;21.70;96.90
26262;DHT22;13988;52.446;13.280;2023-06-14T11:42:50;22.10;98.70
26262;DHT22;13988;52.446;13.280;2023-06-14T11:45:15;22.40;96.60
26262;DHT22;13988;52.446;13.280;2023-06-14T11:47:41;22.80;94.20
26262;DHT22;13988;52.446;13.280;2023-06-14T11:50:08;23.30;92.80
26262;DHT22;13988;52.446;13.280;2023-06-14T11:52:36;23.50;93.10
26262;DHT22;13988;52.446;13.280;2023-06-14T11:55:02;23.30;90.60
26262;DHT22;13988;52.446;13.280;2023-06-14T11:57:33;23.80;91.30
26262;DHT22;13988;52.446;13.280;2023-06-14T11:59:59;24.30;89.40
26262;DHT22;13988;52.446;13.280;2023-06-14T12:02:25;23.40;91.80
26262;DHT22;13988;52.446;13.280;2023-06-14T12:04:53;23.70;90.50
26262;DHT22;13988;52.446;13.280;2023-06-14T12:07:22;23.50;90.10
26262;DHT22;13988;52.446;13.280;2023-06-14T12:12:21;22.70;87.10
26262;DHT22;13988;52.446;13.280;2023-06-14T12:14:47;22.80;90.80
26262;DHT22;13988;52.446;13.280;2023-06-14T12:17:13;23.10;85.70
26262;DHT22;13988;52.446;13.280;2023-06-14T12:19:43;23.10;87.90
26262;DHT22;13988;52.446;13.280;2023-06-14T12:22:12;22.90;84.20
26262;DHT22;13988;52.446;13.280;2023-06-14T12:24:38;23.00;83.60
26262;DHT22;13988;52.446;13.280;2023-06-14T12:27:05;23.10;85.00
26262;DHT22;13988;52.446;13.280;2023-06-14T12:29:34;23.80;83.60
26262;DHT22;13988;52.446;13.280;2023-06-14T12:32:00;23.20;81.50
26262;DHT22;13988;52.446;13.280;2023-06-14T12:34:26;23.30;81.60
26262;DHT22;13988;52.446;13.280;2023-06-14T12:36:55;23.70;85.50
26262;DHT22;13988;52.446;13.280;2023-06-14T12:39:21;24.00;83.30
26262;DHT22;13988;52.446;13.280;2023-06-14T12:41:47;23.80;79.40
26262;DHT22;13988;52.446;13.280;2023-06-14T12:44:14;23.60;82.50
26262;DHT22;13988;52.446;13.280;2023-06-14T12:46:43;25.50;77.10
26262;DHT22;13988;52.446;13.280;2023-06-14T12:49:10;24.70;73.10
26262;DHT22;13988;52.446;13.280;2023-06-14T12:51:37;24.20;77.20
26262;DHT22;13988;52.446;13.280;2023-06-14T12:54:04;24.50;73.70
26262;DHT22;13988;52.446;13.280;2023-06-14T12:56:29;25.80;72.30
26262;DHT22;13988;52.446;13.280;2023-06-14T12:58:55;25.90;69.40
26262;DHT22;13988;52.446;13.280;2023-06-14T13:01:21;24.90;69.50
26262;DHT22;13988;52.446;13.280;2023-06-14T13:03:47;25.00;70.30
26262;DHT22;13988;52.446;13.280;2023-06-14T13:06:13;25.50;66.70
26262;DHT22;13988;52.446;13.280;2023-06-14T13:08:39;26.20;65.60
26262;DHT22;13988;52.446;13.280;2023-06-14T13:11:04;26.00;63.40
26262;DHT22;13988;52.446;13.280;2023-06-14T13:13:30;25.10;67.00
26262;DHT22;13988;52.446;13.280;2023-06-14T13:15:56;26.10;64.90
26262;DHT22;13988;52.446;13.280;2023-06-14T13:18:21;26.40;62.80
26262;DHT22;13988;52.446;13.280;2023-06-14T13:20:47;26.40;64.00
26262;DHT22;13988;52.446;13.280;2023-06-14T13:23:15;26.20;63.40
26262;DHT22;13988;52.446;13.280;2023-06-14T13:25:40;26.10;64.00
26262;DHT22;13988;52.446;13.280;2023-06-14T13:28:06;25.60;63.30
26262;DHT22;13988;52.446;13.280;2023-06-14T13:30:32;26.60;63.60
26262;DHT22;13988;52.446;13.280;2023-06-14T13:32:58;25.60;59.70
26262;DHT22;13988;52.446;13.280;2023-06-14T13:35:25;25.60;62.00
26262;DHT22;13988;52.446;13.280;2023-06-14T13:37:51;25.60;63.80
26262;DHT22;13988;52.446;13.280;2023-06-14T13:40:17;25.70;60.80
26262;DHT22;13988;52.446;13.280;2023-06-14T13:42:42;25.70;61.60
26262;DHT22;13988;52.446;13.280;2023-06-14T13:45:09;25.60;59.70
26262;DHT22;13988;52.446;13.280;2023-06-14T13:47:35;25.70;57.00
26262;DHT22;13988;52.446;13.280;2023-06-14T13:50:01;25.50;56.90
26262;DHT22;13988;52.446;13.280;2023-06-14T13:52:27;25.20;56.70
26262;DHT22;13988;52.446;13.280;2023-06-14T13:54:53;25.10;56.30
26262;DHT22;13988;52.446;13.280;2023-06-14T13:57:19;25.70;57.70
26262;DHT22;13988;52.446;13.280;2023-06-14T13:59:45;25.60;56.40
26262;DHT22;13988;52.446;13.280;2023-06-14T14:02:11;25.30;56.60
26262;DHT22;13988;52.446;13.280;2023-06-14T14:04:37;25.60;56.00
26262;DHT22;13988;52.446;13.280;2023-06-14T14:07:04;26.00;56.60
26262;DHT22;13988;52.446;13.280;2023-06-14T14:09:31;25.90;55.90
26262;DHT22;13988;52.446;13.280;2023-06-14T14:11:58;25.80;57.30
26262;DHT22;13988;52.446;13.280;2023-06-14T14:14:23;25.40;55.30
26262;DHT22;13988;52.446;13.280;2023-06-14T14:16:49;25.00;56.30
26262;DHT22;13988;52.446;13.280;2023-06-14T14:19:17;25.50;57.90
26262;DHT22;13988;52.446;13.280;2023-06-14T14:21:44;25.60;56.90
26262;DHT22;13988;52.446;13.280;2023-06-14T14:24:10;25.10;56.50
26262;DHT22;13988;52.446;13.280;2023-06-14T14:26:35;25.20;59.10
26262;DHT22;13988;52.446;13.280;2023-06-14T14:29:01;25.60;58.70
26262;DHT22;13988;52.446;13.280;2023-06-14T14:31:28;25.60;56.80
26262;DHT22;13988;52.446;13.280;2023-06-14T14:33:53;25.30;57.50
26262;DHT22;13988;52.446;13.280;2023-06-14T14:36:19;25.40;57.30
26262;DHT22;13988;52.446;13.280;2023-06-14T14:38:45;25.20;56.80
26262;DHT22;13988;52.446;13.280;2023-06-14T14:41:12;25.10;57.60
26262;DHT22;13988;52.446;13.280;2023-06-14T14:43:38;24.80;56.60
26262;DHT22;13988;52.446;13.280;2023-06-14T14:46:04;24.30;57.60
26262;DHT22;13988;52.446;13.280;2023-06-14T14:48:30;24.60;59.80
26262;DHT22;13988;52.446;13.280;2023-06-14T14:50:56;24.40;58.40
26262;DHT22;13988;52.446;13.280;2023-06-14T14:53:22;24.60;59.70
26262;DHT22;13988;52.446;13.280;2023-06-14T14:55:47;24.40;59.20
26262;DHT22;13988;52.446;13.280;2023-06-14T14:58:13;24.40;60.20
26262;DHT22;13988;52.446;13.280;2023-06-14T15:00:46;24.10;58.80
26262;DHT22;13988;52.446;13.280;2023-06-14T15:03:13;24.10;58.90
26262;DHT22;13988;52.446;13.280;2023-06-14T15:05:39;23.90;59.90
26262;DHT22;13988;52.446;13.280;2023-06-14T15:08:05;23.60;60.80
26262;DHT22;13988;52.446;13.280;2023-06-14T15:10:40;23.30;61.80
26262;DHT22;13988;52.446;13.280;2023-06-14T15:13:07;23.10;62.00
26262;DHT22;13988;52.446;13.280;2023-06-14T15:15:33;23.00;62.30
26262;DHT22;13988;52.446;13.280;2023-06-14T15:18:00;22.80;62.90
26262;DHT22;13988;52.446;13.280;2023-06-14T15:20:26;22.70;63.50
26262;DHT22;13988;52.446;13.280;2023-06-14T15:22:51;22.50;63.80
26262;DHT22;13988;52.446;13.280;2023-06-14T15:25:18;22.50;63.80
26262;DHT22;13988;52.446;13.280;2023-06-14T15:27:44;22.50;64.00
26262;DHT22;13988;52.446;13.280;2023-06-14T15:30:10;22.60;64.60
26262;DHT22;13988;52.446;13.280;2023-06-14T15:32:36;22.60;64.30
26262;DHT22;13988;52.446;13.280;2023-06-14T15:35:02;22.60;64.60